sensor_id;sensor_type;location;lat;lon;timestamp;temperature;humidity
13850;DHT22;6995;52.618;13.488;2023-06-22T00:00:51;21.00;63.80
13850;DHT22;6995;52.618;13.488;2023-06-22T00:03:19;21.00;66.60
13850;DHT22;6995;52.618;13.488;2023-06-22T00:05:47;21.00;66.40
13850;DHT22;6995;52.618;13.488;2023-06-22T00:08:13;21.00;69.90
13850;DHT22;6995;52.618;13.488;2023-06-22T00:10:39;21.00;70.20
13850;DHT22;6995;52.618;13.488;2023-06-22T00:13:06;21.00;71.40
13850;DHT22;6995;52.618;13.488;2023-06-22T00:15:33;20.90;74.50
13850;DHT22;6995;52.618;13.488;2023-06-22T00:17:58;20.90;77.80
13850;DHT22;6995;52.618;13.488;2023-06-22T00:20:25;20.80;99.90
13850;DHT22;6995;52.618;13.488;2023-06-22T00:22:55;20.80;84.10
13850;DHT22;6995;52.618;13.488;2023-06-22T00:25:21;20.80;89.50
13850;DHT22;6995;52.618;13.488;2023-06-22T00:27:47;20.80;85.60
13850;DHT22;6995;52.618;13.488;2023-06-22T00:30:13;20.80;91.30
13850;DHT22;6995;52.618;13.488;2023-06-22T00:32:38;20.80;90.90
13850;DHT22;6995;52.618;13.488;2023-06-22T00:35:04;20.70;91.30
13850;DHT22;6995;52.618;13.488;2023-06-22T00:37:30;20.70;95.80
13850;DHT22;6995;52.618;13.488;2023-06-22T00:39:56;20.60;99.90
13850;DHT22;6995;52.618;13.488;2023-06-22T00:42:22;20.60;99.90
13850;DHT22;6995;52.618;13.488;2023-06-22T00:44:48;20.60;99.90
13850;DHT22;6995;52.618;13.488;2023-06-22T00:47:16;20.40;99.90
13850;DHT22;6995;52.618;13.488;2023-06-22T00:49:42;20.30;99.90
13850;DHT22;6995;52.618;13.488;2023-06-22T00:52:09;20.20;99.90
13850;DHT22;6995;52.618;13.488;2023-06-22T00:54:43;20.10;99.90
13850;DHT22;6995;52.618;13.488;2023-06-22T00:57:13;20.00;99.90
13850;DHT22;6995;52.618;13.488;2023-06-22T00:59:45;20.00;99.90
13850;DHT22;6995;52.618;13.488;2023-06-22T01:02:13;20.00;99.90
13850;DHT22;6995;52.618;13.488;2023-06-22T01:04:39;19.90;99.90
13850;DHT22;6995;52.618;13.488;2023-06-22T01:07:15;19.80;99.90
13850;DHT22;6995;52.618;13.488;2023-06-22T01:12:23;20.00;99.90
13850;DHT22;6995;52.618;13.488;2023-06-22T01:16:31;20.10;99.90
13850;DHT22;6995;52.618;13.488;2023-06-22T01:19:01;20.10;99.90
13850;DHT22;6995;52.618;13.488;2023-06-22T01:21:29;20.00;99.90
13850;DHT22;6995;52.618;13.488;2023-06-22T01:24:16;19.90;99.90
13850;DHT22;6995;52.618;13.488;2023-06-22T01:29:20;19.70;99.90
13850;DHT22;6995;52.618;13.488;2023-06-22T01:31:50;19.70;99.90
13850;DHT22;6995;52.618;13.488;2023-06-22T01:34:16;19.60;99.90
13850;DHT22;6995;52.618;13.488;2023-06-22T01:36:43;19.60;99.90
13850;DHT22;6995;52.618;13.488;2023-06-22T01:39:09;19.50;99.90
13850;DHT22;6995;52.618;13.488;2023-06-22T01:41:38;19.50;99.90
13850;DHT22;6995;52.618;13.488;2023-06-22T01:44:07;19.50;99.90
13850;DHT22;6995;52.618;13.488;2023-06-22T01:46:34;19.60;99.90
13850;DHT22;6995;52.618;13.488;2023-06-22T01:49:02;19.60;99.90
13850;DHT22;6995;52.618;13.488;2023-06-22T01:51:28;19.50;99.90
13850;DHT22;6995;52.618;13.488;2023-06-22T01:53:53;19.50;99.90
13850;DHT22;6995;52.618;13.488;2023-06-22T01:56:19;19.50;99.90
13850;DHT22;6995;52.618;13.488;2023-06-22T01:58:55;19.40;99.90
13850;DHT22;6995;52.618;13.488;2023-06-22T02:01:27;19.40;99.90
13850;DHT22;6995;52.618;13.488;2023-06-22T02:04:03;19.40;99.90
13850;DHT22;6995;52.618;13.488;2023-06-22T02:06:43;19.40;99.90
13850;DHT22;6995;52.618;13.488;2023-06-22T02:09:14;19.40;99.90
13850;DHT22;6995;52.618;13.488;2023-06-22T02:11:43;19.40;99.90
13850;DHT22;6995;52.618;13.488;2023-06-22T02:14:10;19.30;99.90
13850;DHT22;6995;52.618;13.488;2023-06-22T02:16:36;19.30;99.90
13850;DHT22;6995;52.618;13.488;2023-06-22T02:19:03;19.30;99.90
13850;DHT22;6995;52.618;13.488;2023-06-22T02:21:29;19.30;99.90
13850;DHT22;6995;52.618;13.488;2023-06-22T02:23:56;19.30;99.90
13850;DHT22;6995;52.618;13.488;2023-06-22T02:26:23;19.30;99.90
13850;DHT22;6995;52.618;13.488;2023-06-22T02:28:50;19.30;99.90
13850;DHT22;6995;52.618;13.488;2023-06-22T02:31:15;19.30;99.90
13850;DHT22;6995;52.618;13.488;2023-06-22T02:33:41;19.30;99.90
13850;DHT22;6995;52.618;13.488;2023-06-22T02:36:07;19.20;99.90
13850;DHT22;6995;52.618;13.488;2023-06-22T02:38:35;19.30;99.90
13850;DHT22;6995;52.618;13.488;2023-06-22T02:41:02;19.30;99.90
13850;DHT22;6995;52.618;13.488;2023-06-22T02:43:27;19.30;99.90
13850;DHT22;6995;52.618;13.488;2023-06-22T02:45:53;19.40;99.90
13850;DHT22;6995;52.618;13.488;2023-06-22T02:48:19;19.40;99.90
13850;DHT22;6995;52.618;13.488;2023-06-22T02:50:45;19.40;99.90
13850;DHT22;6995;52.618;13.488;2023-06-22T02:53:10;19.40;99.90
13850;DHT22;6995;52.618;13.488;2023-06-22T02:55:36;19.50;99.90
13850;DHT22;6995;52.618;13.488;2023-06-22T02:58:02;19.50;99.90
13850;DHT22;6995;52.618;13.488;2023-06-22T03:00:30;19.50;99.90
13850;DHT22;6995;52.618;13.488;2023-06-22T03:02:57;19.60;99.90
13850;DHT22;6995;52.618;13.488;2023-06-22T03:05:23;19.70;99.90
13850;DHT22;6995;52.618;13.488;2023-06-22T03:07:49;19.70;99.90
13850;DHT22;6995;52.618;13.488;2023-06-22T03:10:15;19.70;99.90
13850;DHT22;6995;52.618;13.488;2023-06-22T03:12:42;19.80;99.90
13850;DHT22;6995;52.618;13.488;2023-06-22T03:15:09;19.70;99.90
13850;DHT22;6995;52.618;13.488;2023-06-22T03:17:36;19.70;99.90
13850;DHT22;6995;52.618;13.488;2023-06-22T03:20:02;19.70;99.90
13850;DHT22;6995;52.618;13.488;2023-06-22T03:22:39;19.70;99.90
13850;DHT22;6995;52.618;13.488;2023-06-22T03:25:05;19.60;99.90
13850;DHT22;6995;52.618;13.488;2023-06-22T03:27:36;19.50;99.90
13850;DHT22;6995;52.618;13.488;2023-06-22T03:30:02;19.50;99.90
13850;DHT22;6995;52.618;13.488;2023-06-22T03:32:28;19.50;99.90
13850;DHT22;6995;52.618;13.488;2023-06-22T03:34:53;19.50;99.90
13850;DHT22;6995;52.618;13.488;2023-06-22T03:37:19;19.60;99.90
13850;DHT22;6995;52.618;13.488;2023-06-22T03:39:45;19.60;99.90
13850;DHT22;6995;52.618;13.488;2023-06-22T03:42:10;19.60;99.90
13850;DHT22;6995;52.618;13.488;2023-06-22T03:44:36;19.70;99.90
13850;DHT22;6995;52.618;13.488;2023-06-22T03:47:03;19.70;99.90
13850;DHT22;6995;52.618;13.488;2023-06-22T03:49:29;19.80;99.90
13850;DHT22;6995;52.618;13.488;2023-06-22T03:51:54;19.80;99.90
13850;DHT22;6995;52.618;13.488;2023-06-22T03:54:20;19.90;99.90
13850;DHT22;6995;52.618;13.488;2023-06-22T03:56:46;19.90;99.90
13850;DHT22;6995;52.618;13.488;2023-06-22T03:59:11;19.90;99.90
13850;DHT22;6995;52.618;13.488;2023-06-22T04:01:37;20.00;99.90
13850;DHT22;6995;52.618;13.488;2023-06-22T04:04:02;20.10;99.90
13850;DHT22;6995;52.618;13.488;2023-06-22T04:06:28;20.10;99.90
13850;DHT22;6995;52.618;13.488;2023-06-22T04:08:54;20.10;99.90
13850;DHT22;6995;52.618;13.488;2023-06-22T04:11:19;20.20;99.90
13850;DHT22;6995;52.618;13.488;2023-06-22T04:13:45;20.30;99.90
13850;DHT22;6995;52.618;13.488;2023-06-22T04:16:11;20.40;99.90
13850;DHT22;6995;52.618;13.488;2023-06-22T04:18:36;20.50;99.90
13850;DHT22;6995;52.618;13.488;2023-06-22T04:21:02;20.50;99.90
13850;DHT22;6995;52.618;13.488;2023-06-22T04:23:28;20.50;99.90
13850;DHT22;6995;52.618;13.488;2023-06-22T04:25:54;20.60;99.90
13850;DHT22;6995;52.618;13.488;2023-06-22T04:28:22;20.60;99.90
13850;DHT22;6995;52.618;13.488;2023-06-22T04:30:47;20.70;99.90
13850;DHT22;6995;52.618;13.488;2023-06-22T04:33:14;20.70;99.90
13850;DHT22;6995;52.618;13.488;2023-06-22T04:35:40;20.80;99.90
13850;DHT22;6995;52.618;13.488;2023-06-22T04:38:07;20.90;99.90
13850;DHT22;6995;52.618;13.488;2023-06-22T04:40:33;21.00;99.90
13850;DHT22;6995;52.618;13.488;2023-06-22T04:42:58;21.10;99.90
13850;DHT22;6995;52.618;13.488;2023-06-22T04:45:28;21.20;99.90
13850;DHT22;6995;52.618;13.488;2023-06-22T04:47:54;21.20;99.90
13850;DHT22;6995;52.618;13.488;2023-06-22T04:50:20;21.30;99.90
13850;DHT22;6995;52.618;13.488;2023-06-22T04:52:47;21.40;99.90
13850;DHT22;6995;52.618;13.488;2023-06-22T04:55:13;21.50;99.90
13850;DHT22;6995;52.618;13.488;2023-06-22T04:57:44;21.50;99.90
13850;DHT22;6995;52.618;13.488;2023-06-22T05:00:23;21.60;99.90
13850;DHT22;6995;52.618;13.488;2023-06-22T05:02:48;21.70;99.90
13850;DHT22;6995;52.618;13.488;2023-06-22T05:05:15;21.80;99.90
13850;DHT22;6995;52.618;13.488;2023-06-22T05:07:46;21.90;96.90
13850;DHT22;6995;52.618;13.488;2023-06-22T05:10:13;22.10;84.60
13850;DHT22;6995;52.618;13.488;2023-06-22T05:12:40;22.20;83.30
13850;DHT22;6995;52.618;13.488;2023-06-22T05:15:10;22.20;72.40
13850;DHT22;6995;52.618;13.488;2023-06-22T05:17:36;22.10;74.30
13850;DHT22;6995;52.618;13.488;2023-06-22T05:20:09;22.20;73.80
13850;DHT22;6995;52.618;13.488;2023-06-22T05:22:34;22.20;72.00
13850;DHT22;6995;52.618;13.488;2023-06-22T05:25:00;22.30;61.30
13850;DHT22;6995;52.618;13.488;2023-06-22T05:27:26;22.40;69.40
13850;DHT22;6995;52.618;13.488;2023-06-22T05:29:51;22.50;48.90
13850;DHT22;6995;52.618;13.488;2023-06-22T05:32:17;22.60;43.90
13850;DHT22;6995;52.618;13.488;2023-06-22T05:34:46;22.90;36.20
13850;DHT22;6995;52.618;13.488;2023-06-22T05:37:11;23.20;13.30
13850;DHT22;6995;52.618;13.488;2023-06-22T05:39:38;23.40;3.10
13850;DHT22;6995;52.618;13.488;2023-06-22T05:42:05;23.40;1.00
13850;DHT22;6995;52.618;13.488;2023-06-22T05:44:31;23.40;1.00
13850;DHT22;6995;52.618;13.488;2023-06-22T05:46:57;23.30;1.00
13850;DHT22;6995;52.618;13.488;2023-06-22T05:49:22;23.10;1.00
13850;DHT22;6995;52.618;13.488;2023-06-22T05:51:50;23.00;1.00
13850;DHT22;6995;52.618;13.488;2023-06-22T05:54:16;23.00;1.00
13850;DHT22;6995;52.618;13.488;2023-06-22T05:56:43;23.20;1.00
13850;DHT22;6995;52.618;13.488;2023-06-22T05:59:08;23.50;1.00
13850;DHT22;6995;52.618;13.488;2023-06-22T06:01:34;23.70;1.00
13850;DHT22;6995;52.618;13.488;2023-06-22T06:04:02;23.90;1.00
13850;DHT22;6995;52.618;13.488;2023-06-22T06:06:27;23.80;1.00
13850;DHT22;6995;52.618;13.488;2023-06-22T06:08:54;23.80;1.00
13850;DHT22;6995;52.618;13.488;2023-06-22T06:11:19;23.90;1.00
13850;DHT22;6995;52.618;13.488;2023-06-22T06:13:45;23.90;1.00
13850;DHT22;6995;52.618;13.488;2023-06-22T06:16:11;24.00;1.00
13850;DHT22;6995;52.618;13.488;2023-06-22T06:18:36;24.20;1.00
13850;DHT22;6995;52.618;13.488;2023-06-22T06:21:03;24.10;1.00
13850;DHT22;6995;52.618;13.488;2023-06-22T06:23:28;24.00;1.00
13850;DHT22;6995;52.618;13.488;2023-06-22T06:25:54;24.00;1.00
13850;DHT22;6995;52.618;13.488;2023-06-22T06:28:19;24.10;1.00
13850;DHT22;6995;52.618;13.488;2023-06-22T06:30:45;24.30;1.00
13850;DHT22;6995;52.618;13.488;2023-06-22T06:33:12;24.40;1.00
13850;DHT22;6995;52.618;13.488;2023-06-22T06:35:38;24.40;1.00
13850;DHT22;6995;52.618;13.488;2023-06-22T06:38:04;24.50;1.00
13850;DHT22;6995;52.618;13.488;2023-06-22T06:40:30;24.60;1.00
13850;DHT22;6995;52.618;13.488;2023-06-22T06:42:55;24.90;1.00
13850;DHT22;6995;52.618;13.488;2023-06-22T06:45:22;24.80;1.00
13850;DHT22;6995;52.618;13.488;2023-06-22T06:47:48;24.90;1.00
13850;DHT22;6995;52.618;13.488;2023-06-22T06:50:14;25.00;1.00
13850;DHT22;6995;52.618;13.488;2023-06-22T06:52:40;25.10;1.00
13850;DHT22;6995;52.618;13.488;2023-06-22T06:55:07;25.00;1.00
13850;DHT22;6995;52.618;13.488;2023-06-22T06:57:34;25.10;1.00
13850;DHT22;6995;52.618;13.488;2023-06-22T07:00:00;25.10;1.00
13850;DHT22;6995;52.618;13.488;2023-06-22T07:02:26;25.30;1.00
13850;DHT22;6995;52.618;13.488;2023-06-22T07:04:55;25.40;1.00
13850;DHT22;6995;52.618;13.488;2023-06-22T07:07:21;25.50;1.00
13850;DHT22;6995;52.618;13.488;2023-06-22T07:09:46;25.40;1.00
13850;DHT22;6995;52.618;13.488;2023-06-22T07:12:12;25.60;1.00
13850;DHT22;6995;52.618;13.488;2023-06-22T07:14:38;25.50;1.00
13850;DHT22;6995;52.618;13.488;2023-06-22T07:17:04;25.70;1.00
13850;DHT22;6995;52.618;13.488;2023-06-22T07:19:30;25.70;1.00
13850;DHT22;6995;52.618;13.488;2023-06-22T07:21:56;25.90;1.00
13850;DHT22;6995;52.618;13.488;2023-06-22T07:24:24;26.10;1.00
13850;DHT22;6995;52.618;13.488;2023-06-22T07:26:51;26.10;1.00
13850;DHT22;6995;52.618;13.488;2023-06-22T07:29:17;25.90;1.00
13850;DHT22;6995;52.618;13.488;2023-06-22T07:31:44;26.00;1.00
13850;DHT22;6995;52.618;13.488;2023-06-22T07:34:10;26.00;1.00
13850;DHT22;6995;52.618;13.488;2023-06-22T07:36:35;25.90;1.00
13850;DHT22;6995;52.618;13.488;2023-06-22T07:39:02;25.70;1.00
13850;DHT22;6995;52.618;13.488;2023-06-22T07:41:28;25.60;1.00
13850;DHT22;6995;52.618;13.488;2023-06-22T07:43:54;25.70;1.00
13850;DHT22;6995;52.618;13.488;2023-06-22T07:46:19;25.90;1.00
13850;DHT22;6995;52.618;13.488;2023-06-22T07:48:45;25.90;1.00
13850;DHT22;6995;52.618;13.488;2023-06-22T07:51:13;25.80;1.00
13850;DHT22;6995;52.618;13.488;2023-06-22T07:53:43;25.90;1.00
13850;DHT22;6995;52.618;13.488;2023-06-22T07:56:13;26.10;1.00
13850;DHT22;6995;52.618;13.488;2023-06-22T07:58:39;26.20;1.00
13850;DHT22;6995;52.618;13.488;2023-06-22T08:01:05;26.30;1.00
13850;DHT22;6995;52.618;13.488;2023-06-22T08:03:32;26.70;1.00
13850;DHT22;6995;52.618;13.488;2023-06-22T08:05:57;26.80;1.00
13850;DHT22;6995;52.618;13.488;2023-06-22T08:08:23;26.80;1.00
13850;DHT22;6995;52.618;13.488;2023-06-22T08:10:49;26.80;1.00
13850;DHT22;6995;52.618;13.488;2023-06-22T08:13:15;27.00;1.00
13850;DHT22;6995;52.618;13.488;2023-06-22T08:15:40;27.30;1.00
13850;DHT22;6995;52.618;13.488;2023-06-22T08:18:06;27.60;1.00
13850;DHT22;6995;52.618;13.488;2023-06-22T08:20:32;27.70;1.00
13850;DHT22;6995;52.618;13.488;2023-06-22T08:22:58;27.80;1.00
13850;DHT22;6995;52.618;13.488;2023-06-22T08:25:31;28.00;1.00
13850;DHT22;6995;52.618;13.488;2023-06-22T08:27:56;28.20;1.00
13850;DHT22;6995;52.618;13.488;2023-06-22T08:30:22;28.20;1.00
13850;DHT22;6995;52.618;13.488;2023-06-22T08:32:48;28.30;1.00
13850;DHT22;6995;52.618;13.488;2023-06-22T08:35:14;28.20;1.00
13850;DHT22;6995;52.618;13.488;2023-06-22T08:37:39;27.70;1.00
13850;DHT22;6995;52.618;13.488;2023-06-22T08:40:08;27.40;1.00
13850;DHT22;6995;52.618;13.488;2023-06-22T08:42:40;27.30;1.00
13850;DHT22;6995;52.618;13.488;2023-06-22T08:45:09;27.40;1.00
13850;DHT22;6995;52.618;13.488;2023-06-22T08:47:35;27.50;1.00
13850;DHT22;6995;52.618;13.488;2023-06-22T08:50:01;27.50;1.00
13850;DHT22;6995;52.618;13.488;2023-06-22T08:52:29;27.60;1.00
13850;DHT22;6995;52.618;13.488;2023-06-22T08:54:55;27.70;1.00
13850;DHT22;6995;52.618;13.488;2023-06-22T08:57:21;27.60;1.00
13850;DHT22;6995;52.618;13.488;2023-06-22T08:59:47;27.50;1.00
13850;DHT22;6995;52.618;13.488;2023-06-22T09:02:12;27.50;1.00
13850;DHT22;6995;52.618;13.488;2023-06-22T09:04:38;27.60;1.00
13850;DHT22;6995;52.618;13.488;2023-06-22T09:07:04;27.80;1.00
13850;DHT22;6995;52.618;13.488;2023-06-22T09:09:30;27.90;1.00
13850;DHT22;6995;52.618;13.488;2023-06-22T09:11:55;28.40;1.00
13850;DHT22;6995;52.618;13.488;2023-06-22T09:14:21;28.60;1.00
13850;DHT22;6995;52.618;13.488;2023-06-22T09:16:47;28.80;1.00
13850;DHT22;6995;52.618;13.488;2023-06-22T09:19:12;28.70;1.00
13850;DHT22;6995;52.618;13.488;2023-06-22T09:21:38;28.70;1.00
13850;DHT22;6995;52.618;13.488;2023-06-22T09:24:04;28.70;1.00
13850;DHT22;6995;52.618;13.488;2023-06-22T09:26:30;28.90;1.00
13850;DHT22;6995;52.618;13.488;2023-06-22T09:28:55;29.10;1.00
13850;DHT22;6995;52.618;13.488;2023-06-22T09:31:21;29.10;1.00
13850;DHT22;6995;52.618;13.488;2023-06-22T09:33:52;29.20;1.00
13850;DHT22;6995;52.618;13.488;2023-06-22T09:36:18;29.00;1.00
13850;DHT22;6995;52.618;13.488;2023-06-22T09:38:43;28.90;1.00
13850;DHT22;6995;52.618;13.488;2023-06-22T09:41:09;28.80;1.00
13850;DHT22;6995;52.618;13.488;2023-06-22T09:43:35;28.60;1.00
13850;DHT22;6995;52.618;13.488;2023-06-22T09:46:03;28.40;1.00
13850;DHT22;6995;52.618;13.488;2023-06-22T09:48:29;28.30;1.00
13850;DHT22;6995;52.618;13.488;2023-06-22T09:50:56;28.50;1.00
13850;DHT22;6995;52.618;13.488;2023-06-22T09:53:21;28.80;1.00
13850;DHT22;6995;52.618;13.488;2023-06-22T09:55:47;28.80;1.00
13850;DHT22;6995;52.618;13.488;2023-06-22T09:58:13;28.60;1.00
13850;DHT22;6995;52.618;13.488;2023-06-22T10:00:38;28.70;1.00
13850;DHT22;6995;52.618;13.488;2023-06-22T10:03:04;28.90;1.00
13850;DHT22;6995;52.618;13.488;2023-06-22T10:05:29;28.90;1.00
13850;DHT22;6995;52.618;13.488;2023-06-22T10:07:55;28.90;1.00
13850;DHT22;6995;52.618;13.488;2023-06-22T10:10:21;29.00;1.00
13850;DHT22;6995;52.618;13.488;2023-06-22T10:12:54;29.10;1.00
13850;DHT22;6995;52.618;13.488;2023-06-22T10:15:20;29.30;1.00
13850;DHT22;6995;52.618;13.488;2023-06-22T10:17:47;29.30;1.00
13850;DHT22;6995;52.618;13.488;2023-06-22T10:20:13;29.40;1.00
13850;DHT22;6995;52.618;13.488;2023-06-22T10:22:40;29.50;1.00
13850;DHT22;6995;52.618;13.488;2023-06-22T10:25:06;29.60;1.00
13850;DHT22;6995;52.618;13.488;2023-06-22T10:27:32;29.60;1.00
13850;DHT22;6995;52.618;13.488;2023-06-22T10:29:57;29.80;1.00
13850;DHT22;6995;52.618;13.488;2023-06-22T10:32:23;29.80;1.00
13850;DHT22;6995;52.618;13.488;2023-06-22T10:34:49;29.70;1.00
13850;DHT22;6995;52.618;13.488;2023-06-22T10:37:14;29.70;1.00
13850;DHT22;6995;52.618;13.488;2023-06-22T10:39:40;29.70;1.00
13850;DHT22;6995;52.618;13.488;2023-06-22T10:42:06;29.60;1.00
13850;DHT22;6995;52.618;13.488;2023-06-22T10:44:31;29.60;1.00
13850;DHT22;6995;52.618;13.488;2023-06-22T10:46:57;29.30;1.00
13850;DHT22;6995;52.618;13.488;2023-06-22T10:49:23;29.10;1.00
13850;DHT22;6995;52.618;13.488;2023-06-22T10:51:48;29.10;1.00
13850;DHT22;6995;52.618;13.488;2023-06-22T10:54:14;29.20;1.00
13850;DHT22;6995;52.618;13.488;2023-06-22T10:56:42;28.90;1.00
13850;DHT22;6995;52.618;13.488;2023-06-22T10:59:08;29.10;1.00
13850;DHT22;6995;52.618;13.488;2023-06-22T11:01:33;29.00;1.00
13850;DHT22;6995;52.618;13.488;2023-06-22T11:03:59;29.10;1.00
13850;DHT22;6995;52.618;13.488;2023-06-22T11:06:25;29.10;1.00
13850;DHT22;6995;52.618;13.488;2023-06-22T11:08:51;29.30;1.00
13850;DHT22;6995;52.618;13.488;2023-06-22T11:11:16;29.00;1.00
13850;DHT22;6995;52.618;13.488;2023-06-22T11:13:43;28.80;1.00
13850;DHT22;6995;52.618;13.488;2023-06-22T11:16:09;28.70;1.00
13850;DHT22;6995;52.618;13.488;2023-06-22T11:18:35;28.70;1.00
13850;DHT22;6995;52.618;13.488;2023-06-22T11:21:01;28.60;1.00
13850;DHT22;6995;52.618;13.488;2023-06-22T11:23:27;28.90;1.00
13850;DHT22;6995;52.618;13.488;2023-06-22T11:25:54;29.20;1.00
13850;DHT22;6995;52.618;13.488;2023-06-22T11:28:19;29.50;1.00
13850;DHT22;6995;52.618;13.488;2023-06-22T11:30:45;29.30;1.00
13850;DHT22;6995;52.618;13.488;2023-06-22T11:33:11;29.50;1.00
13850;DHT22;6995;52.618;13.488;2023-06-22T11:35:36;29.70;1.00
13850;DHT22;6995;52.618;13.488;2023-06-22T11:38:02;30.10;1.00
13850;DHT22;6995;52.618;13.488;2023-06-22T11:40:29;30.30;1.00
13850;DHT22;6995;52.618;13.488;2023-06-22T11:42:55;30.50;1.00
13850;DHT22;6995;52.618;13.488;2023-06-22T11:45:20;30.70;1.00
13850;DHT22;6995;52.618;13.488;2023-06-22T11:47:46;31.40;1.00
13850;DHT22;6995;52.618;13.488;2023-06-22T11:50:19;32.40;1.00
13850;DHT22;6995;52.618;13.488;2023-06-22T11:52:45;32.90;1.00
13850;DHT22;6995;52.618;13.488;2023-06-22T11:55:10;32.50;1.00
13850;DHT22;6995;52.618;13.488;2023-06-22T11:57:38;32.00;1.00
13850;DHT22;6995;52.618;13.488;2023-06-22T12:00:05;31.80;1.00
13850;DHT22;6995;52.618;13.488;2023-06-22T12:02:42;31.80;1.00
13850;DHT22;6995;52.618;13.488;2023-06-22T12:05:08;31.80;1.00
13850;DHT22;6995;52.618;13.488;2023-06-22T12:07:33;31.70;1.00
13850;DHT22;6995;52.618;13.488;2023-06-22T12:09:59;31.40;1.00
13850;DHT22;6995;52.618;13.488;2023-06-22T12:12:25;31.40;1.00
13850;DHT22;6995;52.618;13.488;2023-06-22T12:14:50;31.90;1.00
13850;DHT22;6995;52.618;13.488;2023-06-22T12:17:16;32.90;1.00
13850;DHT22;6995;52.618;13.488;2023-06-22T12:19:41;33.00;1.00
13850;DHT22;6995;52.618;13.488;2023-06-22T12:22:07;33.20;1.00
13850;DHT22;6995;52.618;13.488;2023-06-22T12:24:33;33.20;1.00
13850;DHT22;6995;52.618;13.488;2023-06-22T12:26:58;33.30;1.00
13850;DHT22;6995;52.618;13.488;2023-06-22T12:29:24;33.60;1.00
13850;DHT22;6995;52.618;13.488;2023-06-22T12:31:49;33.80;1.00
13850;DHT22;6995;52.618;13.488;2023-06-22T12:34:15;33.80;1.00
13850;DHT22;6995;52.618;13.488;2023-06-22T12:36:40;34.00;1.00
13850;DHT22;6995;52.618;13.488;2023-06-22T12:39:06;34.50;1.00
13850;DHT22;6995;52.618;13.488;2023-06-22T12:41:32;34.50;1.00
13850;DHT22;6995;52.618;13.488;2023-06-22T12:43:57;34.60;1.00
13850;DHT22;6995;52.618;13.488;2023-06-22T12:46:23;34.80;1.00
13850;DHT22;6995;52.618;13.488;2023-06-22T12:48:48;34.80;1.00
13850;DHT22;6995;52.618;13.488;2023-06-22T12:51:21;35.00;1.00
13850;DHT22;6995;52.618;13.488;2023-06-22T12:53:47;35.20;1.00
13850;DHT22;6995;52.618;13.488;2023-06-22T12:56:13;35.20;1.00
13850;DHT22;6995;52.618;13.488;2023-06-22T12:58:38;35.40;1.00
13850;DHT22;6995;52.618;13.488;2023-06-22T13:01:04;35.80;1.00
13850;DHT22;6995;52.618;13.488;2023-06-22T13:03:30;35.70;1.00
13850;DHT22;6995;52.618;13.488;2023-06-22T13:05:55;35.60;1.00
13850;DHT22;6995;52.618;13.488;2023-06-22T13:08:21;34.90;1.00
13850;DHT22;6995;52.618;13.488;2023-06-22T13:10:46;35.00;1.00
13850;DHT22;6995;52.618;13.488;2023-06-22T13:13:12;35.40;1.00
13850;DHT22;6995;52.618;13.488;2023-06-22T13:15:37;35.40;1.00
13850;DHT22;6995;52.618;13.488;2023-06-22T13:18:03;35.10;1.00
13850;DHT22;6995;52.618;13.488;2023-06-22T13:20:29;34.50;1.00
13850;DHT22;6995;52.618;13.488;2023-06-22T13:22:54;34.10;1.00
13850;DHT22;6995;52.618;13.488;2023-06-22T13:25:21;34.10;1.00
13850;DHT22;6995;52.618;13.488;2023-06-22T13:27:49;34.40;1.00
13850;DHT22;6995;52.618;13.488;2023-06-22T13:30:15;34.80;1.00
13850;DHT22;6995;52.618;13.488;2023-06-22T13:32:41;34.90;1.00
13850;DHT22;6995;52.618;13.488;2023-06-22T13:35:11;35.00;1.00
13850;DHT22;6995;52.618;13.488;2023-06-22T13:37:36;36.10;1.00
13850;DHT22;6995;52.618;13.488;2023-06-22T13:40:04;36.60;1.00
13850;DHT22;6995;52.618;13.488;2023-06-22T13:42:32;36.90;1.00
13850;DHT22;6995;52.618;13.488;2023-06-22T13:44:57;37.30;1.00
13850;DHT22;6995;52.618;13.488;2023-06-22T13:47:23;37.20;1.00
13850;DHT22;6995;52.618;13.488;2023-06-22T13:49:49;37.00;1.00
13850;DHT22;6995;52.618;13.488;2023-06-22T13:52:14;37.20;1.00
13850;DHT22;6995;52.618;13.488;2023-06-22T13:54:40;37.30;1.00
13850;DHT22;6995;52.618;13.488;2023-06-22T13:57:06;37.40;1.00
13850;DHT22;6995;52.618;13.488;2023-06-22T13:59:32;37.70;1.00
13850;DHT22;6995;52.618;13.488;2023-06-22T14:01:57;38.00;1.00
13850;DHT22;6995;52.618;13.488;2023-06-22T14:04:23;38.40;1.00
13850;DHT22;6995;52.618;13.488;2023-06-22T14:06:49;38.40;1.00
13850;DHT22;6995;52.618;13.488;2023-06-22T14:09:15;38.30;1.00
13850;DHT22;6995;52.618;13.488;2023-06-22T14:11:40;38.40;1.00
13850;DHT22;6995;52.618;13.488;2023-06-22T14:14:06;38.80;1.00
13850;DHT22;6995;52.618;13.488;2023-06-22T14:16:32;39.00;1.00
13850;DHT22;6995;52.618;13.488;2023-06-22T14:18:57;38.90;1.00
13850;DHT22;6995;52.618;13.488;2023-06-22T14:21:23;38.30;1.00
13850;DHT22;6995;52.618;13.488;2023-06-22T14:23:49;39.10;1.00
13850;DHT22;6995;52.618;13.488;2023-06-22T14:26:18;38.50;1.00
13850;DHT22;6995;52.618;13.488;2023-06-22T14:28:46;37.50;1.00
13850;DHT22;6995;52.618;13.488;2023-06-22T14:31:16;37.50;1.00
13850;DHT22;6995;52.618;13.488;2023-06-22T14:33:47;37.80;1.00
13850;DHT22;6995;52.618;13.488;2023-06-22T14:36:13;38.20;1.00
13850;DHT22;6995;52.618;13.488;2023-06-22T14:38:39;38.80;1.00
13850;DHT22;6995;52.618;13.488;2023-06-22T14:41:05;39.20;1.00
13850;DHT22;6995;52.618;13.488;2023-06-22T14:43:30;39.30;1.00
13850;DHT22;6995;52.618;13.488;2023-06-22T14:45:56;38.70;1.00
13850;DHT22;6995;52.618;13.488;2023-06-22T14:48:22;38.40;1.00
13850;DHT22;6995;52.618;13.488;2023-06-22T14:50:47;38.40;1.00
13850;DHT22;6995;52.618;13.488;2023-06-22T14:53:13;38.00;1.00
13850;DHT22;6995;52.618;13.488;2023-06-22T14:55:40;38.00;1.00
13850;DHT22;6995;52.618;13.488;2023-06-22T14:58:05;38.10;1.00
13850;DHT22;6995;52.618;13.488;2023-06-22T15:00:31;38.50;1.00
13850;DHT22;6995;52.618;13.488;2023-06-22T15:02:57;38.60;1.00
13850;DHT22;6995;52.618;13.488;2023-06-22T15:05:24;38.80;1.00
13850;DHT22;6995;52.618;13.488;2023-06-22T15:07:50;39.00;1.00
13850;DHT22;6995;52.618;13.488;2023-06-22T15:10:16;38.40;1.00
13850;DHT22;6995;52.618;13.488;2023-06-22T15:12:41;38.80;1.00
13850;DHT22;6995;52.618;13.488;2023-06-22T15:15:07;38.90;1.00
13850;DHT22;6995;52.618;13.488;2023-06-22T15:17:33;38.80;1.00
13850;DHT22;6995;52.618;13.488;2023-06-22T15:19:59;39.20;1.00
13850;DHT22;6995;52.618;13.488;2023-06-22T15:22:24;39.60;1.00
13850;DHT22;6995;52.618;13.488;2023-06-22T15:24:50;39.50;1.00
13850;DHT22;6995;52.618;13.488;2023-06-22T15:27:19;38.70;1.00
13850;DHT22;6995;52.618;13.488;2023-06-22T15:29:45;38.90;1.00
13850;DHT22;6995;52.618;13.488;2023-06-22T15:32:11;39.30;1.00
13850;DHT22;6995;52.618;13.488;2023-06-22T15:34:37;39.20;1.00
13850;DHT22;6995;52.618;13.488;2023-06-22T15:37:03;39.50;1.00
13850;DHT22;6995;52.618;13.488;2023-06-22T15:39:29;39.20;1.00
13850;DHT22;6995;52.618;13.488;2023-06-22T15:41:54;39.40;1.00